Time;durP1;ratioP1;P1;durP2;ratioP2;P2;SDS_P1;SDS_P2;PMS_P1;PMS_P2;Temp;Humidity;BMP_temperature;BMP_pressure;BME280_temperature;BME280_humidity;BME280_pressure;Samples;Min_cycle;Max_cycle;Signal;HPM_P1;HPM_P2
2024/02/09 00:02:07;;;;;;;9.93;2.08;;;9.40;99.90;;;;;;5064690;28;20589;-75
2024/02/09 00:04:38;;;;;;;3.67;2.22;;;9.40;99.90;;;;;;5061870;28;20204;-75
2024/02/09 00:07:04;;;;;;;4.70;2.42;;;9.50;99.90;;;;;;5056359;28;20207;-75
2024/02/09 00:09:31;;;;;;;7.68;2.10;;;9.50;99.90;;;;;;5065978;28;20210;-75
2024/02/09 00:12:00;;;;;;;9.70;2.92;;;9.50;99.90;;;;;;5068178;28;20297;-74
2024/02/09 00:14:27;;;;;;;4.25;2.00;;;9.50;99.90;;;;;;5066783;28;20196;-74
2024/02/09 00:16:54;;;;;;;4.20;2.15;;;9.50;99.90;;;;;;5067594;28;20203;-74
2024/02/09 00:19:22;;;;;;;3.40;1.58;;;9.50;99.90;;;;;;5067667;28;20687;-75
2024/02/09 00:21:48;;;;;;;3.75;2.30;;;9.50;99.90;;;;;;5066977;28;20580;-74
2024/02/09 00:24:15;;;;;;;3.28;1.80;;;9.50;99.90;;;;;;5068409;28;20282;-74
2024/02/09 00:26:42;;;;;;;3.80;1.80;;;9.50;99.90;;;;;;5065640;28;20586;-75
2024/02/09 00:29:10;;;;;;;9.95;2.38;;;9.50;99.90;;;;;;5068678;28;20236;-74
2024/02/09 00:31:37;;;;;;;3.78;2.13;;;9.50;99.90;;;;;;5066106;28;20207;-74
2024/02/09 00:34:04;;;;;;;5.18;2.40;;;9.50;99.90;;;;;;5068587;28;20226;-75
2024/02/09 00:36:34;;;;;;;3.67;1.92;;;9.50;99.90;;;;;;5066458;28;20574;-74
2024/02/09 00:39:00;;;;;;;3.20;1.90;;;9.40;99.90;;;;;;5057142;28;20627;-74
2024/02/09 00:41:27;;;;;;;5.90;2.30;;;9.40;99.90;;;;;;5067223;28;20218;-74
2024/02/09 00:43:55;;;;;;;1.27;1.13;;;9.40;99.90;;;;;;5067842;28;20231;-75
2024/02/09 00:46:28;;;;;;;3.45;1.70;;;9.30;99.90;;;;;;5067855;28;20668;-75
2024/02/09 00:48:54;;;;;;;3.53;2.35;;;9.40;99.90;;;;;;5068157;28;21005;-74
2024/02/09 00:51:21;;;;;;;3.35;1.75;;;9.40;99.90;;;;;;5068229;28;20556;-75
2024/02/09 00:53:49;;;;;;;3.28;2.30;;;9.40;99.90;;;;;;5067150;28;20221;-74
2024/02/09 00:56:16;;;;;;;5.55;2.38;;;9.40;99.90;;;;;;5068547;28;20669;-74
2024/02/09 00:58:42;;;;;;;6.95;2.35;;;9.40;99.90;;;;;;5066372;28;20220;-74
2024/02/09 01:01:09;;;;;;;6.40;2.10;;;9.40;99.90;;;;;;5068876;28;20200;-74
2024/02/09 01:03:37;;;;;;;6.78;2.03;;;9.30;99.90;;;;;;5066517;28;20223;-75
2024/02/09 01:06:06;;;;;;;2.25;1.95;;;9.30;99.90;;;;;;5068743;28;20294;-74
2024/02/09 01:08:33;;;;;;;6.05;2.92;;;9.30;99.90;;;;;;5067002;28;20249;-74
2024/02/09 01:11:00;;;;;;;2.08;1.77;;;9.30;99.90;;;;;;5056123;28;20587;-75
2024/02/09 02:46:16;;;;;;;3.10;1.70;;;8.80;99.90;;;;;;5069476;28;20288;-74
2024/02/09 03:05:17;;;;;;;5.10;2.00;;;8.70;99.90;;;;;;5058548;28;20213;-74
2024/02/09 03:07:44;;;;;;;3.47;1.98;;;8.70;99.90;;;;;;5068899;28;20268;-75
2024/02/09 03:10:11;;;;;;;4.50;2.80;;;8.70;99.90;;;;;;5070048;28;20205;-75
2024/02/09 03:12:39;;;;;;;4.45;1.90;;;8.70;99.90;;;;;;5069311;28;20620;-75
2024/02/09 03:15:09;;;;;;;2.58;2.15;;;8.70;99.90;;;;;;5070125;28;20202;-75
2024/02/09 03:17:36;;;;;;;4.45;1.88;;;8.70;99.90;;;;;;5069361;28;20232;-75
2024/02/09 03:20:04;;;;;;;2.17;1.48;;;8.70;99.90;;;;;;5061905;28;20575;-75
2024/02/09 03:22:31;;;;;;;2.38;1.40;;;8.70;99.90;;;;;;5070075;28;20581;-75
2024/02/09 03:25:01;;;;;;;4.50;1.90;;;8.70;99.90;;;;;;5069676;28;20214;-75
2024/02/09 03:27:29;;;;;;;2.97;1.83;;;8.70;99.90;;;;;;5070419;28;20309;-75
2024/02/09 03:29:59;;;;;;;6.13;1.90;;;8.70;99.90;;;;;;5070023;28;20283;-75
2024/02/09 03:32:25;;;;;;;3.05;1.95;;;8.70;99.90;;;;;;5070856;28;20327;-75
2024/02/09 03:34:52;;;;;;;2.40;1.63;;;8.70;99.90;;;;;;5070057;28;20201;-75
2024/02/09 03:37:20;;;;;;;5.32;1.70;;;8.70;99.90;;;;;;5064150;28;20581;-75
2024/02/09 03:39:47;;;;;;;2.78;1.60;;;8.80;99.90;;;;;;5050297;28;20261;-75
2024/02/09 03:42:14;;;;;;;5.18;2.05;;;8.80;99.90;;;;;;5052273;28;20203;-75
2024/02/09 03:44:41;;;;;;;2.15;1.35;;;8.80;99.90;;;;;;5054275;28;20226;-75
2024/02/09 03:47:09;;;;;;;3.60;1.67;;;8.80;99.90;;;;;;5054197;28;20206;-75
2024/02/09 03:49:36;;;;;;;1.90;1.50;;;8.90;99.90;;;;;;5054654;28;20232;-75
2024/02/09 03:52:05;;;;;;;2.42;1.48;;;8.90;99.90;;;;;;5054259;28;20239;-76
2024/02/09 03:54:34;;;;;;;2.45;1.25;;;8.90;99.90;;;;;;5054758;28;20288;-75
2024/02/09 03:57:00;;;;;;;1.88;1.50;;;8.90;99.90;;;;;;5053826;28;20642;-75
2024/02/09 03:59:30;;;;;;;1.77;1.40;;;8.90;99.90;;;;;;5054405;28;20213;-75
2024/02/09 04:01:59;;;;;;;2.97;1.50;;;8.90;99.90;;;;;;5054420;28;20220;-75
2024/02/09 04:04:27;;;;;;;3.95;1.33;;;8.90;99.90;;;;;;5054672;28;20230;-75
2024/02/09 04:06:54;;;;;;;4.20;1.52;;;8.90;99.90;;;;;;5054279;28;20229;-75
2024/02/09 04:09:20;;;;;;;3.13;1.80;;;8.90;99.90;;;;;;5053126;28;20213;-75
2024/02/09 04:11:48;;;;;;;2.55;1.70;;;8.80;99.90;;;;;;5054480;28;20214;-75
2024/02/09 04:14:16;;;;;;;1.70;1.60;;;8.80;99.90;;;;;;5054591;28;20217;-75
2024/02/09 04:16:43;;;;;;;2.78;1.25;;;8.80;99.90;;;;;;5053764;28;20203;-74
2024/02/09 04:19:09;;;;;;;2.33;1.90;;;8.80;99.90;;;;;;5049280;28;20685;-75
2024/02/09 04:21:47;;;;;;;3.25;1.65;;;8.80;99.90;;;;;;5049233;28;20216;-75
2024/02/09 04:24:14;;;;;;;2.70;1.70;;;8.80;99.90;;;;;;5047500;28;20227;-75
2024/02/09 04:26:41;;;;;;;2.75;1.30;;;8.80;99.90;;;;;;5054697;28;20210;-75
2024/02/09 04:29:08;;;;;;;2.95;2.03;;;8.80;99.90;;;;;;5053589;28;20222;-74
2024/02/09 04:31:34;;;;;;;3.33;1.77;;;8.70;99.90;;;;;;5054306;28;20208;-75
2024/02/09 04:34:01;;;;;;;7.95;2.20;;;8.80;99.90;;;;;;5053430;28;20584;-75
2024/02/09 04:36:29;;;;;;;1.30;1.20;;;8.80;99.90;;;;;;5052979;28;20213;-75
2024/02/09 04:38:57;;;;;;;3.05;1.35;;;8.80;99.90;;;;;;5055257;28;20725;-75
2024/02/09 04:41:24;;;;;;;2.65;1.70;;;8.90;99.90;;;;;;5054987;28;20203;-74
2024/02/09 04:43:52;;;;;;;2.00;1.50;;;8.90;99.90;;;;;;5055304;28;20236;-74
2024/02/09 04:46:22;;;;;;;2.95;1.50;;;9.00;99.90;;;;;;5053905;28;20202;-74
2024/02/09 04:48:49;;;;;;;1.75;1.33;;;9.00;99.90;;;;;;5054980;28;20206;-74
2024/02/09 04:51:16;;;;;;;3.42;1.42;;;9.00;99.90;;;;;;5054455;28;20202;-74
2024/02/09 04:53:43;;;;;;;1.98;1.10;;;9.00;99.90;;;;;;5055057;28;20232;-75
2024/02/09 04:56:11;;;;;;;1.30;1.20;;;9.00;99.90;;;;;;5053806;28;20620;-75
2024/02/09 04:58:37;;;;;;;1.48;1.30;;;9.10;99.90;;;;;;5055269;28;20705;-75
2024/02/09 05:01:05;;;;;;;1.95;1.40;;;9.10;99.90;;;;;;5055819;28;20204;-75
2024/02/09 05:03:31;;;;;;;1.60;1.50;;;9.10;99.90;;;;;;5053923;28;20609;-75
2024/02/09 05:05:58;;;;;;;4.60;1.58;;;9.10;99.90;;;;;;5055856;28;20215;-75
2024/02/09 05:08:25;;;;;;;2.90;1.52;;;9.20;99.90;;;;;;5054764;28;20586;-73
2024/02/09 05:10:51;;;;;;;3.92;1.25;;;9.20;99.90;;;;;;5056519;28;20296;-74
2024/02/09 05:13:19;;;;;;;1.10;0.98;;;9.20;99.90;;;;;;5055861;28;20249;-74
2024/02/09 05:15:46;;;;;;;1.75;1.20;;;9.20;99.90;;;;;;5044896;28;20206;-74
2024/02/09 05:18:14;;;;;;;1.30;1.10;;;9.20;99.90;;;;;;5052678;28;20213;-73
2024/02/09 05:20:41;;;;;;;2.40;1.30;;;9.30;99.90;;;;;;5053850;28;20214;-77
2024/02/09 05:23:07;;;;;;;1.50;1.00;;;9.30;99.90;;;;;;5054213;28;20244;-72
2024/02/09 05:25:34;;;;;;;1.27;1.13;;;9.40;99.90;;;;;;5055499;28;20222;-73
2024/02/09 05:28:01;;;;;;;1.45;1.20;;;9.40;99.90;;;;;;5053294;28;20595;-72
2024/02/09 05:30:29;;;;;;;1.35;1.10;;;9.40;99.90;;;;;;5055573;28;20702;-75
2024/02/09 05:32:56;;;;;;;1.25;1.10;;;9.40;99.90;;;;;;5056064;28;20315;-74
2024/02/09 05:35:22;;;;;;;2.00;1.05;;;9.40;99.90;;;;;;5055009;28;20672;-76
2024/02/09 05:37:49;;;;;;;1.58;1.30;;;9.40;99.90;;;;;;5052953;28;20209;-75
2024/02/09 05:40:16;;;;;;;1.00;0.90;;;9.40;99.90;;;;;;5054032;28;20213;-75
2024/02/09 05:42:43;;;;;;;2.42;1.58;;;9.40;99.90;;;;;;5054143;28;20234;-75
2024/02/09 05:45:09;;;;;;;1.33;1.23;;;9.40;99.90;;;;;;5054704;28;20217;-73
2024/02/09 05:47:37;;;;;;;1.75;1.00;;;9.40;99.90;;;;;;5053352;28;20229;-74
2024/02/09 05:50:04;;;;;;;1.83;1.30;;;9.40;99.90;;;;;;5055883;28;20226;-74
2024/02/09 05:52:31;;;;;;;2.00;1.40;;;9.40;99.90;;;;;;5055842;28;20614;-74
2024/02/09 05:54:58;;;;;;;1.60;1.17;;;9.50;99.90;;;;;;5056617;28;20215;-74
2024/02/09 05:57:27;;;;;;;2.15;1.10;;;9.40;99.90;;;;;;5055174;28;20207;-76
2024/02/09 05:59:53;;;;;;;0.90;0.80;;;9.50;99.90;;;;;;5057004;28;20209;-75
2024/02/09 06:02:20;;;;;;;0.90;0.80;;;9.50;99.90;;;;;;5055460;28;20628;-74
2024/02/09 06:04:48;;;;;;;5.78;1.20;;;9.50;99.90;;;;;;5056485;28;20229;-75
2024/02/09 06:07:15;;;;;;;2.08;1.10;;;9.50;99.90;;;;;;5055390;28;20743;-75
2024/02/09 06:09:42;;;;;;;1.25;1.08;;;9.50;99.90;;;;;;5056419;28;20210;-75
2024/02/09 06:12:09;;;;;;;1.20;1.10;;;9.50;99.90;;;;;;5055846;28;20695;-75
2024/02/09 06:14:35;;;;;;;2.10;1.60;;;9.50;99.90;;;;;;5055609;28;20220;-75
2024/02/09 06:17:04;;;;;;;0.90;0.80;;;9.50;99.90;;;;;;5056782;28;20216;-75
2024/02/09 06:19:31;;;;;;;1.50;1.10;;;9.50;99.90;;;;;;5055879;28;20294;-76
2024/02/09 06:21:59;;;;;;;1.52;1.00;;;9.50;99.90;;;;;;5058077;28;20323;-75
2024/02/09 06:24:26;;;;;;;2.53;1.23;;;9.50;99.90;;;;;;5055762;28;20236;-75
2024/02/09 06:26:53;;;;;;;1.50;1.33;;;9.50;99.90;;;;;;5057647;28;20214;-75
2024/02/09 06:29:21;;;;;;;1.15;1.05;;;9.50;99.90;;;;;;5055772;28;20229;-75
2024/02/09 06:31:48;;;;;;;1.02;0.93;;;9.50;99.90;;;;;;5057881;28;20244;-74
2024/02/09 06:34:14;;;;;;;1.48;1.20;;;9.50;99.90;;;;;;5059897;28;20221;-74
2024/02/09 06:36:44;;;;;;;1.10;0.77;;;9.50;99.90;;;;;;5056706;28;20216;-75
2024/02/09 06:39:12;;;;;;;1.05;0.95;;;9.50;99.90;;;;;;5054245;28;20206;-75
2024/02/09 06:41:38;;;;;;;0.98;0.82;;;9.50;99.90;;;;;;5056348;28;20210;-75
2024/02/09 06:44:05;;;;;;;1.58;1.20;;;9.50;99.90;;;;;;5057845;28;20232;-75
2024/02/09 06:46:32;;;;;;;1.02;0.93;;;9.50;99.90;;;;;;5053488;28;20595;-75
2024/02/09 06:49:00;;;;;;;0.93;0.77;;;9.50;99.90;;;;;;5058233;28;20228;-76
2024/02/09 06:51:27;;;;;;;2.75;0.80;;;9.50;99.90;;;;;;5056436;28;20260;-76
2024/02/09 06:53:55;;;;;;;1.33;0.93;;;9.50;99.90;;;;;;5053186;28;20228;-75
2024/02/09 06:56:23;;;;;;;1.10;0.88;;;9.50;99.90;;;;;;5056030;28;20217;-75
2024/02/09 06:58:52;;;;;;;0.93;0.82;;;9.50;99.90;;;;;;5055020;28;20235;-76
2024/02/09 07:01:19;;;;;;;1.15;1.05;;;9.60;99.90;;;;;;5053503;28;20286;-75
2024/02/09 07:03:46;;;;;;;2.72;1.00;;;9.60;99.90;;;;;;5056718;28;20229;-74
2024/02/09 07:06:13;;;;;;;1.20;1.10;;;9.60;99.90;;;;;;5049868;28;20229;-76
2024/02/09 07:08:40;;;;;;;1.20;1.00;;;9.60;99.90;;;;;;5050679;28;20676;-75
2024/02/09 07:11:11;;;;;;;1.33;1.00;;;9.60;99.90;;;;;;5057382;28;20722;-75
2024/02/09 07:13:40;;;;;;;1.10;1.00;;;9.60;99.90;;;;;;5053364;28;20261;-75
2024/02/09 07:16:07;;;;;;;1.00;0.80;;;9.60;99.90;;;;;;5054399;28;20196;-75
2024/02/09 07:18:38;;;;;;;1.50;1.30;;;9.70;99.90;;;;;;5058390;28;20211;-76
2024/02/09 07:21:05;;;;;;;3.92;1.52;;;9.70;99.90;;;;;;5057558;28;20378;-76
2024/02/09 07:23:32;;;;;;;1.30;1.10;;;9.70;99.90;;;;;;5060607;28;20236;-76
2024/02/09 07:25:59;;;;;;;1.10;1.00;;;9.70;99.90;;;;;;5063378;28;20230;-76
2024/02/09 07:28:25;;;;;;;1.88;1.15;;;9.70;99.90;;;;;;5060407;28;20211;-76
2024/02/09 07:30:55;;;;;;;1.15;0.90;;;9.70;99.90;;;;;;5062514;28;20217;-75
2024/02/09 07:33:22;;;;;;;1.33;0.90;;;9.70;99.90;;;;;;5061490;28;20231;-75
2024/02/09 07:35:49;;;;;;;1.00;0.90;;;9.70;99.90;;;;;;5062256;28;20203;-75
2024/02/09 07:38:15;;;;;;;1.75;1.00;;;9.70;99.90;;;;;;5060842;28;20664;-76
2024/02/09 07:40:42;;;;;;;1.10;1.00;;;9.80;99.90;;;;;;5061368;28;20210;-75
2024/02/09 07:43:09;;;;;;;0.80;0.80;;;9.80;99.90;;;;;;5062082;28;20689;-75
2024/02/09 07:45:36;;;;;;;1.77;1.17;;;9.80;99.90;;;;;;5060669;28;20226;-76
2024/02/09 07:48:05;;;;;;;1.20;1.10;;;9.80;99.90;;;;;;5063004;28;20215;-75
2024/02/09 07:50:34;;;;;;;1.55;1.08;;;9.80;99.90;;;;;;5060710;28;20298;-76
2024/02/09 07:53:01;;;;;;;1.30;1.20;;;9.80;99.90;;;;;;5057331;28;20227;-75
2024/02/09 07:55:28;;;;;;;1.30;0.95;;;9.80;99.90;;;;;;5060896;28;20200;-76
2024/02/09 07:57:55;;;;;;;1.35;1.00;;;9.80;99.90;;;;;;5063009;28;20707;-76
2024/02/09 08:00:22;;;;;;;2.25;1.13;;;9.80;99.90;;;;;;5060723;28;20216;-76
2024/02/09 08:02:49;;;;;;;1.73;1.48;;;9.90;99.90;;;;;;5062485;28;20227;-75
2024/02/09 08:05:18;;;;;;;1.83;1.17;;;9.90;99.90;;;;;;5062108;28;20230;-84
2024/02/09 08:07:46;;;;;;;1.60;1.17;;;10.00;99.90;;;;;;5061690;28;20206;-76
2024/02/09 08:10:14;;;;;;;1.80;1.30;;;10.10;99.90;;;;;;5062109;28;20268;-75
2024/02/09 08:12:41;;;;;;;2.97;1.13;;;10.20;99.90;;;;;;5064397;28;20781;-75
2024/02/09 08:15:09;;;;;;;1.13;1.02;;;10.30;99.90;;;;;;5048496;28;20208;-84
2024/02/09 08:17:36;;;;;;;1.67;1.50;;;10.40;99.90;;;;;;5060322;28;20586;-76
2024/02/09 08:20:05;;;;;;;3.28;1.17;;;10.50;99.90;;;;;;5064049;28;20206;-76
2024/02/09 08:22:34;;;;;;;1.65;1.02;;;10.50;99.90;;;;;;5060613;28;20247;-75
2024/02/09 08:25:01;;;;;;;1.73;1.27;;;10.50;99.90;;;;;;5056581;28;20237;-75
2024/02/09 08:27:27;;;;;;;2.20;1.40;;;10.60;99.90;;;;;;5055377;28;20215;-75
2024/02/09 08:29:56;;;;;;;1.20;1.00;;;10.70;99.90;;;;;;5062972;28;20207;-76
2024/02/09 08:32:23;;;;;;;1.10;0.90;;;10.70;99.90;;;;;;5060691;28;20232;-76
2024/02/09 08:34:51;;;;;;;1.60;1.50;;;10.80;99.90;;;;;;5062768;28;20208;-77
2024/02/09 08:37:18;;;;;;;1.40;1.05;;;10.90;99.90;;;;;;5061116;28;20660;-76
2024/02/09 08:39:47;;;;;;;1.48;1.20;;;11.10;99.90;;;;;;5061877;28;20211;-76
2024/02/09 08:42:14;;;;;;;1.10;1.00;;;11.20;99.90;;;;;;5062067;28;20220;-76
2024/02/09 08:44:41;;;;;;;2.95;1.58;;;11.30;99.90;;;;;;5060910;28;20220;-75
2024/02/09 08:47:10;;;;;;;2.10;1.25;;;11.40;99.90;;;;;;5049187;28;20207;-76
2024/02/09 08:49:36;;;;;;;2.00;1.45;;;11.50;99.90;;;;;;5056499;28;20223;-76
2024/02/09 08:52:05;;;;;;;1.27;1.17;;;11.60;99.90;;;;;;5057144;28;20207;-75
2024/02/09 08:54:32;;;;;;;1.42;0.90;;;11.60;99.90;;;;;;5056573;28;20208;-75
2024/02/09 08:57:10;;;;;;;1.30;1.00;;;11.70;99.90;;;;;;5063800;28;20594;-76
2024/02/09 08:59:39;;;;;;;1.10;1.00;;;12.00;99.90;;;;;;5060674;28;20814;-75
2024/02/09 09:02:10;;;;;;;1.27;1.13;;;12.40;99.90;;;;;;5064140;28;20217;-76
2024/02/09 09:04:43;;;;;;;1.33;1.23;;;12.60;99.90;;;;;;5060956;28;20197;-75
2024/02/09 09:07:19;;;;;;;4.82;1.35;;;12.60;99.90;;;;;;5063730;28;20215;-76
2024/02/09 09:09:54;;;;;;;1.58;1.20;;;12.60;99.90;;;;;;5060500;28;20212;-76
2024/02/09 09:12:22;;;;;;;1.63;1.30;;;12.70;99.90;;;;;;5057929;28;20985;-76
2024/02/09 09:14:49;;;;;;;3.38;1.10;;;13.00;99.90;;;;;;5062641;28;20209;-75
2024/02/09 09:17:16;;;;;;;1.10;1.00;;;13.30;99.90;;;;;;5062789;28;20207;-76
2024/02/09 09:19:43;;;;;;;1.50;1.00;;;13.90;99.90;;;;;;5061334;28;20201;-75
2024/02/09 09:22:09;;;;;;;2.50;1.00;;;14.20;99.90;;;;;;5059106;28;20201;-76
2024/02/09 09:24:36;;;;;;;1.53;1.00;;;14.10;99.90;;;;;;5051322;28;20479;-76
2024/02/09 09:27:04;;;;;;;1.65;1.10;;;13.90;99.90;;;;;;5064343;28;20482;-75
2024/02/09 09:29:32;;;;;;;3.63;1.00;;;13.80;99.90;;;;;;5060790;28;20205;-77
2024/02/09 09:32:00;;;;;;;3.47;1.40;;;13.70;99.90;;;;;;5062656;28;20488;-76
2024/02/09 09:34:27;;;;;;;1.20;1.10;;;13.90;99.90;;;;;;5059536;28;20208;-77
2024/02/09 09:36:54;;;;;;;1.67;1.00;;;14.20;99.90;;;;;;5057801;28;20451;-76
2024/02/09 09:39:21;;;;;;;1.67;0.90;;;14.40;99.90;;;;;;5061571;28;20451;-76
2024/02/09 09:41:48;;;;;;;1.67;1.30;;;14.00;99.90;;;;;;5055484;28;20460;-76
2024/02/09 09:44:15;;;;;;;1.23;1.00;;;13.80;99.90;;;;;;5048826;28;20491;-76
2024/02/09 09:46:45;;;;;;;2.53;1.40;;;13.70;99.90;;;;;;5062056;28;20484;-76
2024/02/09 09:49:12;;;;;;;2.10;1.20;;;13.70;99.90;;;;;;5063853;28;20494;-76
2024/02/09 09:51:45;;;;;;;1.93;1.10;;;13.50;99.90;;;;;;5055978;28;20483;-76
2024/02/09 09:54:15;;;;;;;3.67;1.33;;;13.30;99.90;;;;;;5065818;28;20478;-75
2024/02/09 09:56:45;;;;;;;1.83;1.43;;;13.30;99.90;;;;;;5059969;28;20462;-76
2024/02/09 09:59:13;;;;;;;1.00;0.90;;;13.20;99.90;;;;;;5053724;28;20509;-76
2024/02/09 10:01:41;;;;;;;1.40;1.23;;;13.40;99.90;;;;;;5059085;28;20978;-75
2024/02/09 10:04:09;;;;;;;1.00;0.90;;;13.80;99.90;;;;;;5065147;28;20576;-76
2024/02/09 10:06:36;;;;;;;2.07;1.37;;;14.30;99.90;;;;;;5053536;28;21015;-76
2024/02/09 10:09:07;;;;;;;2.40;1.27;;;14.40;99.90;;;;;;5065388;28;20498;-76
2024/02/09 10:11:35;;;;;;;1.87;1.50;;;14.00;99.90;;;;;;5057219;28;20464;-73
2024/02/09 10:14:02;;;;;;;1.20;1.10;;;13.80;99.90;;;;;;5048633;28;20475;-75
2024/02/09 10:16:29;;;;;;;1.40;1.10;;;13.60;99.90;;;;;;5051908;28;20825;-73
2024/02/09 10:18:56;;;;;;;1.98;1.33;;;13.50;99.90;;;;;;5055791;28;20470;-75
2024/02/09 10:21:25;;;;;;;1.50;0.97;;;13.30;99.90;;;;;;5053422;28;20198;-76
2024/02/09 10:24:22;;;;;;;1.20;0.95;;;13.20;99.90;;;;;;5053763;28;20502;-78
2024/02/09 10:27:10;;;;;;;1.92;1.10;;;13.20;99.90;;;;;;5062529;28;20217;-74
2024/02/09 10:29:48;;;;;;;1.88;1.45;;;13.00;99.90;;;;;;5047278;28;20206;-75
2024/02/09 10:35:24;;;;;;;1.27;1.13;;;12.90;99.90;;;;;;5045007;28;20670;-75
2024/02/09 10:37:57;;;;;;;1.23;1.13;;;12.80;99.90;;;;;;5062679;28;20591;-76
2024/02/09 10:40:33;;;;;;;2.03;1.00;;;12.90;99.90;;;;;;5063565;28;20470;-75
2024/02/09 10:43:10;;;;;;;1.10;1.00;;;12.90;99.90;;;;;;5048828;28;20224;-75
2024/02/09 10:45:48;;;;;;;1.13;0.98;;;12.90;99.90;;;;;;5062137;28;20227;-75
2024/02/09 10:48:27;;;;;;;1.40;1.25;;;12.90;99.90;;;;;;5060342;28;20208;-75
2024/02/09 10:51:05;;;;;;;0.90;0.80;;;13.00;99.90;;;;;;5064345;28;20200;-76
2024/02/09 10:53:57;;;;;;;1.63;1.27;;;13.10;99.90;;;;;;5057584;28;20590;-75
2024/02/09 10:56:43;;;;;;;1.00;0.90;;;13.10;99.90;;;;;;5059724;28;20490;-75
2024/02/09 10:59:22;;;;;;;1.30;1.00;;;13.10;99.90;;;;;;5051564;28;20220;-76
2024/02/09 11:01:52;;;;;;;1.55;0.90;;;13.00;99.90;;;;;;5059622;28;20205;-76
2024/02/09 11:04:23;;;;;;;2.28;0.95;;;13.00;99.90;;;;;;5066275;28;20244;-75
2024/02/09 11:06:53;;;;;;;2.75;1.23;;;13.00;99.90;;;;;;5067618;28;20216;-75
2024/02/09 11:09:28;;;;;;;2.90;1.30;;;13.10;99.90;;;;;;5069453;28;20291;-75
2024/02/09 11:12:05;;;;;;;1.20;0.82;;;13.10;99.90;;;;;;5072016;28;20212;-75
2024/02/09 11:14:36;;;;;;;2.25;1.10;;;13.10;99.90;;;;;;5052853;28;20205;-75
2024/02/09 11:17:06;;;;;;;1.30;1.02;;;13.10;99.90;;;;;;5054660;28;20208;-76
2024/02/09 11:19:38;;;;;;;1.10;1.00;;;13.20;99.90;;;;;;5057207;28;20597;-76
2024/02/09 11:22:05;;;;;;;1.73;0.90;;;13.20;99.90;;;;;;5048063;28;20547;-76
2024/02/09 11:24:34;;;;;;;2.13;1.08;;;13.20;99.90;;;;;;5055647;28;20492;-76
2024/02/09 11:27:03;;;;;;;1.20;1.10;;;13.10;99.90;;;;;;5053992;28;20221;-76
2024/02/09 11:29:32;;;;;;;2.53;1.17;;;13.20;99.90;;;;;;5063590;28;20208;-76
2024/02/09 11:32:01;;;;;;;1.20;1.10;;;13.20;99.90;;;;;;5065810;28;20203;-76
2024/02/09 11:34:30;;;;;;;1.65;1.30;;;13.30;99.90;;;;;;5064271;28;20466;-76
2024/02/09 11:37:00;;;;;;;1.10;0.97;;;13.40;99.90;;;;;;5062835;28;20282;-76
2024/02/09 11:39:27;;;;;;;2.13;1.00;;;13.40;99.90;;;;;;5057543;28;20987;-76
2024/02/09 11:41:56;;;;;;;1.80;1.47;;;13.40;99.90;;;;;;5058969;28;20467;-76
2024/02/09 11:44:23;;;;;;;1.50;1.20;;;13.40;99.90;;;;;;5059169;28;20810;-75
2024/02/09 11:46:52;;;;;;;1.20;1.03;;;13.30;99.90;;;;;;5056166;28;20506;-76
2024/02/09 11:49:19;;;;;;;1.20;1.05;;;13.30;99.90;;;;;;5062607;28;20493;-76
2024/02/09 11:51:46;;;;;;;1.10;0.90;;;13.20;99.90;;;;;;5066281;28;20212;-75
2024/02/09 11:54:14;;;;;;;2.67;1.13;;;13.10;99.90;;;;;;5065382;28;20237;-76
2024/02/09 11:56:44;;;;;;;1.80;1.40;;;12.90;99.90;;;;;;5057847;28;20213;-76
2024/02/09 11:59:13;;;;;;;1.60;1.20;;;12.90;99.90;;;;;;5061196;28;20202;-76
2024/02/09 12:01:42;;;;;;;1.27;1.05;;;12.80;99.90;;;;;;5056794;28;20216;-76
2024/02/09 12:04:09;;;;;;;1.35;1.05;;;12.80;99.90;;;;;;5071737;28;20285;-75
2024/02/09 12:06:37;;;;;;;2.83;0.90;;;12.80;99.90;;;;;;5067684;28;20716;-76
2024/02/09 12:09:04;;;;;;;0.90;0.80;;;12.80;99.90;;;;;;5070193;28;20262;-76
2024/02/09 12:11:31;;;;;;;1.65;1.13;;;12.80;99.90;;;;;;5062427;28;20238;-76
2024/02/09 12:13:58;;;;;;;2.92;1.15;;;12.90;99.90;;;;;;5063550;28;20252;-76
2024/02/09 12:16:26;;;;;;;1.48;1.10;;;12.90;99.90;;;;;;5070752;28;20197;-76
2024/02/09 12:18:54;;;;;;;1.33;1.10;;;12.90;99.90;;;;;;5069625;28;20204;-76
2024/02/09 12:21:21;;;;;;;3.67;1.30;;;12.80;99.90;;;;;;5071301;28;20197;-76
2024/02/09 12:23:50;;;;;;;1.20;1.10;;;12.80;99.90;;;;;;5068723;28;20490;-76
2024/02/09 12:26:18;;;;;;;1.77;1.30;;;12.80;99.90;;;;;;5071556;28;20268;-76
2024/02/09 12:28:45;;;;;;;1.10;1.00;;;12.80;99.90;;;;;;5068530;28;20209;-76
2024/02/09 12:31:16;;;;;;;1.65;1.00;;;12.70;99.90;;;;;;5070451;28;20266;-76
2024/02/09 12:33:46;;;;;;;1.77;0.90;;;12.70;99.90;;;;;;5068717;28;20255;-76
2024/02/09 12:36:14;;;;;;;2.22;1.27;;;12.70;99.90;;;;;;5070551;28;20577;-76
2024/02/09 12:38:41;;;;;;;2.03;1.42;;;12.50;99.90;;;;;;5061733;28;20215;-76
2024/02/09 12:41:08;;;;;;;1.40;1.15;;;12.40;99.90;;;;;;5070710;28;20196;-76
2024/02/09 12:43:35;;;;;;;2.10;1.15;;;12.40;99.90;;;;;;5069673;28;20220;-76
2024/02/09 12:46:04;;;;;;;3.70;1.10;;;12.40;99.90;;;;;;5057473;28;20201;-76
2024/02/09 12:48:31;;;;;;;1.50;1.20;;;12.40;99.90;;;;;;5070285;28;20205;-76
2024/02/09 12:51:04;;;;;;;1.30;1.10;;;12.30;99.90;;;;;;5070658;28;20395;-76
2024/02/09 12:53:31;;;;;;;3.55;1.35;;;12.20;99.90;;;;;;5070113;28;20255;-76
2024/02/09 12:55:58;;;;;;;1.10;0.95;;;12.20;99.90;;;;;;5070835;28;20200;-76
2024/02/09 12:58:25;;;;;;;1.35;1.00;;;12.20;99.90;;;;;;5070911;28;20201;-76
2024/02/09 13:00:52;;;;;;;2.17;1.02;;;12.10;99.90;;;;;;5069487;28;20206;-76
2024/02/09 13:03:20;;;;;;;2.33;1.17;;;12.00;99.90;;;;;;5071151;28;20227;-76
2024/02/09 13:05:47;;;;;;;1.33;1.20;;;12.00;99.90;;;;;;5069097;28;20232;-79
2024/02/09 13:08:15;;;;;;;1.38;1.20;;;12.10;99.90;;;;;;5061808;28;20220;-75
2024/02/09 13:10:42;;;;;;;1.38;1.25;;;12.10;99.90;;;;;;5069002;28;20204;-75
2024/02/09 13:13:09;;;;;;;2.05;1.10;;;12.20;99.90;;;;;;5057516;28;20220;-75
2024/02/09 13:15:37;;;;;;;1.85;1.23;;;12.20;99.90;;;;;;5070006;28;20208;-76
2024/02/09 13:18:06;;;;;;;1.95;1.40;;;12.30;99.90;;;;;;5071022;28;20204;-76
2024/02/09 13:20:33;;;;;;;1.98;1.10;;;12.30;99.90;;;;;;5070441;28;20455;-76
2024/02/09 13:23:01;;;;;;;2.35;1.10;;;12.40;99.90;;;;;;5060333;28;20635;-76
2024/02/09 13:25:33;;;;;;;1.10;1.00;;;12.50;99.90;;;;;;5063542;28;20235;-75
2024/02/09 13:28:00;;;;;;;1.48;1.35;;;12.50;99.90;;;;;;5070228;28;20216;-76
2024/02/09 13:30:28;;;;;;;1.23;1.13;;;12.50;99.90;;;;;;5070935;28;20619;-75
2024/02/09 13:32:55;;;;;;;1.33;1.20;;;12.60;99.90;;;;;;5068839;28;20302;-74
2024/02/09 13:35:22;;;;;;;1.33;1.08;;;12.50;99.90;;;;;;5070852;28;20197;-74
2024/02/09 13:37:49;;;;;;;2.30;1.27;;;12.50;99.90;;;;;;5068832;28;20648;-76
2024/02/09 13:40:18;;;;;;;1.42;1.33;;;12.50;99.90;;;;;;5070186;28;20212;-76
2024/02/09 13:42:47;;;;;;;2.40;1.75;;;12.60;99.90;;;;;;5068982;28;20225;-76
2024/02/09 13:45:14;;;;;;;1.40;1.13;;;12.60;99.90;;;;;;5070946;28;20215;-75
2024/02/09 13:47:42;;;;;;;2.15;1.40;;;12.60;99.90;;;;;;5069441;28;20232;-76
2024/02/09 13:50:10;;;;;;;5.78;1.33;;;12.60;99.90;;;;;;5071012;28;20488;-76
2024/02/09 13:52:37;;;;;;;1.80;1.40;;;12.70;99.90;;;;;;5069001;28;20644;-76
2024/02/09 13:55:05;;;;;;;2.47;1.13;;;12.80;99.90;;;;;;5071031;28;20363;-75
2024/02/09 13:57:32;;;;;;;1.95;1.15;;;12.90;99.90;;;;;;5070303;28;20459;-74
2024/02/09 14:00:07;;;;;;;3.00;1.17;;;12.80;99.90;;;;;;5070258;28;20295;-74
2024/02/09 14:02:34;;;;;;;1.43;1.30;;;12.70;99.90;;;;;;5069736;28;20238;-75
2024/02/09 14:05:01;;;;;;;1.90;1.30;;;12.70;99.90;;;;;;5062542;28;20459;-74
2024/02/09 14:07:28;;;;;;;4.60;1.30;;;12.70;99.90;;;;;;5070045;28;20223;-74
2024/02/09 14:09:55;;;;;;;2.10;1.40;;;12.70;99.90;;;;;;5070335;28;20216;-74
2024/02/09 14:12:23;;;;;;;2.87;1.40;;;12.70;99.90;;;;;;5070279;28;20532;-74
2024/02/09 14:14:50;;;;;;;1.80;1.42;;;12.70;99.90;;;;;;5070893;28;20485;-75
2024/02/09 14:17:19;;;;;;;1.57;1.47;;;12.70;99.90;;;;;;5070206;28;20550;-75
2024/02/09 14:19:46;;;;;;;2.50;1.17;;;12.70;99.90;;;;;;5070568;28;20462;-75
2024/02/09 14:22:13;;;;;;;1.07;0.97;;;12.80;99.90;;;;;;5065318;28;20201;-74
2024/02/09 14:24:40;;;;;;;2.50;1.00;;;12.80;99.90;;;;;;5050674;28;20459;-75
2024/02/09 14:27:10;;;;;;;1.90;1.30;;;12.80;99.90;;;;;;5050034;28;21085;-75
2024/02/09 14:29:39;;;;;;;1.27;1.17;;;12.80;99.90;;;;;;5050908;28;20209;-75
2024/02/09 14:32:06;;;;;;;1.58;1.33;;;12.70;99.90;;;;;;5050852;28;20848;-74
2024/02/09 14:34:35;;;;;;;1.93;1.17;;;12.70;99.90;;;;;;5051244;28;20283;-74
2024/02/09 14:37:02;;;;;;;1.38;1.27;;;12.60;99.90;;;;;;5042568;28;20560;-75
2024/02/09 14:39:29;;;;;;;1.83;1.33;;;12.60;99.90;;;;;;5051688;28;20799;-74
2024/02/09 14:41:56;;;;;;;4.53;1.60;;;12.60;99.90;;;;;;5050199;28;20466;-74
2024/02/09 14:44:23;;;;;;;1.25;1.10;;;12.60;99.90;;;;;;5051385;28;20232;-74
2024/02/09 14:46:50;;;;;;;1.75;1.55;;;12.50;99.90;;;;;;5050510;28;20650;-74
2024/02/09 14:49:17;;;;;;;2.22;1.23;;;12.50;99.90;;;;;;5051972;28;20695;-75
2024/02/09 14:51:46;;;;;;;1.93;1.30;;;12.50;99.90;;;;;;5050789;28;20209;-76